sensor_id;sensor_type;location;lat;lon;timestamp;P1;durP1;ratioP1;P2;durP2;ratioP2
8462;SDS011;4268;52.506;13.462;2023-03-30T00:00:31;7.40;;;6.80;;
8462;SDS011;4268;52.506;13.462;2023-03-30T00:02:57;7.47;;;6.87;;
8462;SDS011;4268;52.506;13.462;2023-03-30T00:05:26;8.30;;;7.50;;
8462;SDS011;4268;52.506;13.462;2023-03-30T00:07:55;8.10;;;7.40;;
8462;SDS011;4268;52.506;13.462;2023-03-30T00:10:21;7.83;;;7.13;;
8462;SDS011;4268;52.506;13.462;2023-03-30T00:12:47;7.60;;;7.00;;
8462;SDS011;4268;52.506;13.462;2023-03-30T00:15:17;8.43;;;7.73;;
8462;SDS011;4268;52.506;13.462;2023-03-30T00:17:45;8.60;;;7.80;;
8462;SDS011;4268;52.506;13.462;2023-03-30T00:20:12;8.90;;;8.10;;
8462;SDS011;4268;52.506;13.462;2023-03-30T00:22:38;8.27;;;7.60;;
8462;SDS011;4268;52.506;13.462;2023-03-30T00:25:05;8.63;;;7.83;;
8462;SDS011;4268;52.506;13.462;2023-03-30T00:27:33;8.07;;;7.47;;
8462;SDS011;4268;52.506;13.462;2023-03-30T00:30:00;13.33;;;12.47;;
8462;SDS011;4268;52.506;13.462;2023-03-30T00:32:25;8.57;;;7.87;;
8462;SDS011;4268;52.506;13.462;2023-03-30T00:34:51;8.57;;;7.77;;
8462;SDS011;4268;52.506;13.462;2023-03-30T00:37:16;8.23;;;7.60;;
8462;SDS011;4268;52.506;13.462;2023-03-30T00:39:42;8.70;;;8.00;;
8462;SDS011;4268;52.506;13.462;2023-03-30T00:42:14;8.73;;;7.93;;
8462;SDS011;4268;52.506;13.462;2023-03-30T00:47:35;8.60;;;7.90;;
8462;SDS011;4268;52.506;13.462;2023-03-30T00:50:04;8.63;;;7.93;;
8462;SDS011;4268;52.506;13.462;2023-03-30T00:52:31;8.80;;;8.00;;
8462;SDS011;4268;52.506;13.462;2023-03-30T00:54:57;8.83;;;8.03;;
8462;SDS011;4268;52.506;13.462;2023-03-30T00:57:23;9.40;;;8.37;;
8462;SDS011;4268;52.506;13.462;2023-03-30T00:59:50;8.83;;;8.10;;
8462;SDS011;4268;52.506;13.462;2023-03-30T01:02:17;8.33;;;7.63;;
8462;SDS011;4268;52.506;13.462;2023-03-30T01:04:45;8.50;;;7.70;;
8462;SDS011;4268;52.506;13.462;2023-03-30T01:07:12;8.27;;;7.57;;
8462;SDS011;4268;52.506;13.462;2023-03-30T01:09:39;8.60;;;7.80;;
8462;SDS011;4268;52.506;13.462;2023-03-30T01:12:05;9.30;;;8.40;;
8462;SDS011;4268;52.506;13.462;2023-03-30T01:14:31;8.70;;;7.60;;
8462;SDS011;4268;52.506;13.462;2023-03-30T01:17:19;9.03;;;8.33;;
8462;SDS011;4268;52.506;13.462;2023-03-30T01:28:36;8.40;;;7.70;;
8462;SDS011;4268;52.506;13.462;2023-03-30T01:31:20;9.00;;;8.20;;
8462;SDS011;4268;52.506;13.462;2023-03-30T01:33:53;8.77;;;8.03;;
8462;SDS011;4268;52.506;13.462;2023-03-30T01:39:08;10.13;;;9.27;;
8462;SDS011;4268;52.506;13.462;2023-03-30T01:44:35;9.53;;;8.73;;
8462;SDS011;4268;52.506;13.462;2023-03-30T01:47:27;9.47;;;8.67;;
8462;SDS011;4268;52.506;13.462;2023-03-30T01:49:59;10.40;;;9.60;;
8462;SDS011;4268;52.506;13.462;2023-03-30T01:52:53;9.73;;;8.83;;
8462;SDS011;4268;52.506;13.462;2023-03-30T01:55:37;9.70;;;8.83;;
8462;SDS011;4268;52.506;13.462;2023-03-30T01:58:10;9.80;;;8.80;;
8462;SDS011;4268;52.506;13.462;2023-03-30T02:00:45;9.93;;;9.13;;
8462;SDS011;4268;52.506;13.462;2023-03-30T02:03:21;10.13;;;9.23;;
8462;SDS011;4268;52.506;13.462;2023-03-30T02:05:52;9.77;;;8.87;;
8462;SDS011;4268;52.506;13.462;2023-03-30T02:08:21;9.93;;;9.07;;
8462;SDS011;4268;52.506;13.462;2023-03-30T02:10:50;9.77;;;8.97;;
8462;SDS011;4268;52.506;13.462;2023-03-30T02:13:17;10.17;;;9.27;;
8462;SDS011;4268;52.506;13.462;2023-03-30T02:15:45;9.87;;;9.07;;
8462;SDS011;4268;52.506;13.462;2023-03-30T02:18:14;9.63;;;8.80;;
8462;SDS011;4268;52.506;13.462;2023-03-30T02:20:39;10.00;;;9.00;;
8462;SDS011;4268;52.506;13.462;2023-03-30T02:23:06;9.93;;;9.03;;
8462;SDS011;4268;52.506;13.462;2023-03-30T02:25:32;9.63;;;8.80;;
8462;SDS011;4268;52.506;13.462;2023-03-30T02:28:02;9.80;;;8.90;;
8462;SDS011;4268;52.506;13.462;2023-03-30T02:30:32;10.57;;;9.60;;
8462;SDS011;4268;52.506;13.462;2023-03-30T02:32:58;9.27;;;8.53;;
8462;SDS011;4268;52.506;13.462;2023-03-30T02:35:26;10.13;;;9.23;;
8462;SDS011;4268;52.506;13.462;2023-03-30T02:41:24;9.50;;;8.63;;
8462;SDS011;4268;52.506;13.462;2023-03-30T02:46:59;9.60;;;8.80;;
8462;SDS011;4268;52.506;13.462;2023-03-30T02:49:39;9.07;;;8.37;;
8462;SDS011;4268;52.506;13.462;2023-03-30T02:52:29;9.87;;;9.00;;
8462;SDS011;4268;52.506;13.462;2023-03-30T02:55:30;9.50;;;8.70;;
8462;SDS011;4268;52.506;13.462;2023-03-30T02:58:14;9.80;;;9.00;;
8462;SDS011;4268;52.506;13.462;2023-03-30T03:03:34;10.80;;;9.90;;
8462;SDS011;4268;52.506;13.462;2023-03-30T03:06:02;10.57;;;9.67;;
8462;SDS011;4268;52.506;13.462;2023-03-30T03:08:34;10.53;;;9.73;;
8462;SDS011;4268;52.506;13.462;2023-03-30T03:11:01;10.90;;;9.90;;
8462;SDS011;4268;52.506;13.462;2023-03-30T03:13:27;10.97;;;10.17;;
8462;SDS011;4268;52.506;13.462;2023-03-30T03:15:52;11.30;;;10.37;;
8462;SDS011;4268;52.506;13.462;2023-03-30T03:18:21;10.83;;;9.93;;
8462;SDS011;4268;52.506;13.462;2023-03-30T03:20:47;10.97;;;10.07;;
8462;SDS011;4268;52.506;13.462;2023-03-30T03:23:13;11.20;;;10.30;;
8462;SDS011;4268;52.506;13.462;2023-03-30T03:25:38;11.13;;;10.13;;
8462;SDS011;4268;52.506;13.462;2023-03-30T03:28:04;10.67;;;9.73;;
8462;SDS011;4268;52.506;13.462;2023-03-30T03:30:30;10.37;;;9.57;;
8462;SDS011;4268;52.506;13.462;2023-03-30T03:32:55;10.77;;;9.87;;
8462;SDS011;4268;52.506;13.462;2023-03-30T03:35:21;14.40;;;9.93;;
8462;SDS011;4268;52.506;13.462;2023-03-30T03:37:46;11.23;;;10.33;;
8462;SDS011;4268;52.506;13.462;2023-03-30T03:40:12;12.03;;;11.13;;
8462;SDS011;4268;52.506;13.462;2023-03-30T03:42:38;11.70;;;10.70;;
8462;SDS011;4268;52.506;13.462;2023-03-30T03:45:04;11.47;;;10.57;;
8462;SDS011;4268;52.506;13.462;2023-03-30T03:47:30;11.60;;;10.53;;
8462;SDS011;4268;52.506;13.462;2023-03-30T03:49:56;11.87;;;10.87;;
8462;SDS011;4268;52.506;13.462;2023-03-30T03:52:22;12.73;;;11.73;;
8462;SDS011;4268;52.506;13.462;2023-03-30T03:54:47;13.50;;;12.40;;
8462;SDS011;4268;52.506;13.462;2023-03-30T03:57:13;13.17;;;12.17;;
8462;SDS011;4268;52.506;13.462;2023-03-30T03:59:38;12.57;;;11.50;;
8462;SDS011;4268;52.506;13.462;2023-03-30T04:02:04;12.83;;;11.73;;
8462;SDS011;4268;52.506;13.462;2023-03-30T04:04:30;12.80;;;11.80;;
8462;SDS011;4268;52.506;13.462;2023-03-30T04:06:55;14.20;;;13.00;;
8462;SDS011;4268;52.506;13.462;2023-03-30T04:09:21;13.83;;;12.63;;
8462;SDS011;4268;52.506;13.462;2023-03-30T04:11:47;21.57;;;20.07;;
8462;SDS011;4268;52.506;13.462;2023-03-30T04:14:13;14.10;;;12.97;;
8462;SDS011;4268;52.506;13.462;2023-03-30T04:16:38;13.80;;;12.70;;
8462;SDS011;4268;52.506;13.462;2023-03-30T04:19:04;14.80;;;13.43;;
8462;SDS011;4268;52.506;13.462;2023-03-30T04:21:29;13.80;;;12.80;;
8462;SDS011;4268;52.506;13.462;2023-03-30T04:23:55;14.53;;;13.43;;
8462;SDS011;4268;52.506;13.462;2023-03-30T04:26:21;14.60;;;13.40;;
8462;SDS011;4268;52.506;13.462;2023-03-30T04:28:46;15.27;;;14.17;;
8462;SDS011;4268;52.506;13.462;2023-03-30T04:31:12;16.97;;;15.77;;
8462;SDS011;4268;52.506;13.462;2023-03-30T04:33:38;15.43;;;14.23;;
8462;SDS011;4268;52.506;13.462;2023-03-30T04:36:14;14.83;;;13.43;;
8462;SDS011;4268;52.506;13.462;2023-03-30T04:38:43;14.47;;;13.37;;
8462;SDS011;4268;52.506;13.462;2023-03-30T04:41:09;15.90;;;14.63;;
8462;SDS011;4268;52.506;13.462;2023-03-30T04:43:38;14.77;;;13.67;;
8462;SDS011;4268;52.506;13.462;2023-03-30T04:46:04;15.63;;;14.33;;
8462;SDS011;4268;52.506;13.462;2023-03-30T04:48:29;14.40;;;13.30;;
8462;SDS011;4268;52.506;13.462;2023-03-30T04:50:55;27.47;;;25.80;;
8462;SDS011;4268;52.506;13.462;2023-03-30T04:53:20;16.03;;;15.00;;
8462;SDS011;4268;52.506;13.462;2023-03-30T04:55:47;23.80;;;22.40;;
8462;SDS011;4268;52.506;13.462;2023-03-30T04:58:14;13.70;;;12.70;;
8462;SDS011;4268;52.506;13.462;2023-03-30T05:00:40;14.70;;;13.73;;
8462;SDS011;4268;52.506;13.462;2023-03-30T05:03:05;22.90;;;21.40;;
8462;SDS011;4268;52.506;13.462;2023-03-30T05:05:31;13.40;;;12.20;;
8462;SDS011;4268;52.506;13.462;2023-03-30T05:07:57;13.10;;;11.90;;
8462;SDS011;4268;52.506;13.462;2023-03-30T05:10:23;12.77;;;11.77;;
8462;SDS011;4268;52.506;13.462;2023-03-30T05:12:48;12.73;;;11.83;;
8462;SDS011;4268;52.506;13.462;2023-03-30T05:15:14;11.87;;;10.97;;
8462;SDS011;4268;52.506;13.462;2023-03-30T05:17:40;12.17;;;11.17;;
8462;SDS011;4268;52.506;13.462;2023-03-30T05:20:06;11.27;;;10.43;;
8462;SDS011;4268;52.506;13.462;2023-03-30T05:22:35;11.50;;;10.60;;
8462;SDS011;4268;52.506;13.462;2023-03-30T05:25:01;11.70;;;10.73;;
8462;SDS011;4268;52.506;13.462;2023-03-30T05:27:27;10.70;;;9.87;;
8462;SDS011;4268;52.506;13.462;2023-03-30T05:29:53;13.17;;;12.13;;
8462;SDS011;4268;52.506;13.462;2023-03-30T05:32:19;11.20;;;10.20;;
8462;SDS011;4268;52.506;13.462;2023-03-30T05:34:45;10.50;;;9.70;;
8462;SDS011;4268;52.506;13.462;2023-03-30T05:37:11;12.37;;;11.23;;
8462;SDS011;4268;52.506;13.462;2023-03-30T05:39:37;11.50;;;10.53;;
8462;SDS011;4268;52.506;13.462;2023-03-30T05:42:03;10.10;;;9.20;;
8462;SDS011;4268;52.506;13.462;2023-03-30T05:44:29;9.70;;;8.83;;
8462;SDS011;4268;52.506;13.462;2023-03-30T05:46:55;8.57;;;7.70;;
8462;SDS011;4268;52.506;13.462;2023-03-30T05:49:21;8.20;;;7.50;;
8462;SDS011;4268;52.506;13.462;2023-03-30T05:51:46;8.30;;;7.50;;
8462;SDS011;4268;52.506;13.462;2023-03-30T05:54:12;8.37;;;7.57;;
8462;SDS011;4268;52.506;13.462;2023-03-30T05:56:38;8.17;;;7.47;;
8462;SDS011;4268;52.506;13.462;2023-03-30T05:59:04;8.33;;;7.53;;
8462;SDS011;4268;52.506;13.462;2023-03-30T06:01:30;8.70;;;7.80;;
8462;SDS011;4268;52.506;13.462;2023-03-30T06:03:55;7.93;;;7.23;;
8462;SDS011;4268;52.506;13.462;2023-03-30T06:06:21;8.53;;;7.33;;
8462;SDS011;4268;52.506;13.462;2023-03-30T06:08:47;7.67;;;6.90;;
8462;SDS011;4268;52.506;13.462;2023-03-30T06:11:13;7.90;;;7.20;;
8462;SDS011;4268;52.506;13.462;2023-03-30T06:13:39;8.23;;;7.47;;
8462;SDS011;4268;52.506;13.462;2023-03-30T06:16:05;8.87;;;8.00;;
8462;SDS011;4268;52.506;13.462;2023-03-30T06:18:31;8.20;;;6.40;;
8462;SDS011;4268;52.506;13.462;2023-03-30T06:20:57;7.03;;;6.30;;
8462;SDS011;4268;52.506;13.462;2023-03-30T06:23:22;9.50;;;6.33;;
8462;SDS011;4268;52.506;13.462;2023-03-30T06:25:48;10.60;;;9.70;;
8462;SDS011;4268;52.506;13.462;2023-03-30T06:28:17;11.13;;;7.57;;
8462;SDS011;4268;52.506;13.462;2023-03-30T06:30:44;6.83;;;6.20;;
8462;SDS011;4268;52.506;13.462;2023-03-30T06:33:12;7.13;;;5.43;;
8462;SDS011;4268;52.506;13.462;2023-03-30T06:35:42;7.20;;;6.47;;
8462;SDS011;4268;52.506;13.462;2023-03-30T06:38:10;5.60;;;5.10;;
8462;SDS011;4268;52.506;13.462;2023-03-30T06:40:36;6.13;;;5.23;;
8462;SDS011;4268;52.506;13.462;2023-03-30T06:43:01;5.67;;;5.10;;
8462;SDS011;4268;52.506;13.462;2023-03-30T06:45:27;5.87;;;5.10;;
8462;SDS011;4268;52.506;13.462;2023-03-30T06:47:52;5.67;;;5.17;;
8462;SDS011;4268;52.506;13.462;2023-03-30T06:50:18;5.10;;;4.70;;
8462;SDS011;4268;52.506;13.462;2023-03-30T06:52:44;5.20;;;4.80;;
8462;SDS011;4268;52.506;13.462;2023-03-30T06:55:09;5.53;;;5.10;;
8462;SDS011;4268;52.506;13.462;2023-03-30T06:57:35;6.50;;;5.37;;
8462;SDS011;4268;52.506;13.462;2023-03-30T07:00:01;5.40;;;4.97;;
8462;SDS011;4268;52.506;13.462;2023-03-30T07:02:31;5.60;;;5.20;;
8462;SDS011;4268;52.506;13.462;2023-03-30T07:04:57;5.87;;;5.27;;
8462;SDS011;4268;52.506;13.462;2023-03-30T07:07:22;5.90;;;5.20;;
8462;SDS011;4268;52.506;13.462;2023-03-30T07:09:48;5.80;;;5.20;;
8462;SDS011;4268;52.506;13.462;2023-03-30T07:12:14;5.27;;;4.83;;
8462;SDS011;4268;52.506;13.462;2023-03-30T07:14:39;5.50;;;5.00;;
8462;SDS011;4268;52.506;13.462;2023-03-30T07:17:05;5.50;;;5.00;;
8462;SDS011;4268;52.506;13.462;2023-03-30T07:19:31;5.97;;;4.70;;
8462;SDS011;4268;52.506;13.462;2023-03-30T07:21:57;5.03;;;4.63;;
8462;SDS011;4268;52.506;13.462;2023-03-30T07:24:22;5.30;;;4.80;;
8462;SDS011;4268;52.506;13.462;2023-03-30T07:26:48;5.03;;;4.53;;
8462;SDS011;4268;52.506;13.462;2023-03-30T07:29:13;5.37;;;4.90;;
8462;SDS011;4268;52.506;13.462;2023-03-30T07:31:39;5.30;;;4.80;;
8462;SDS011;4268;52.506;13.462;2023-03-30T07:34:05;5.50;;;4.67;;
8462;SDS011;4268;52.506;13.462;2023-03-30T07:36:31;5.20;;;4.78;;
8462;SDS011;4268;52.506;13.462;2023-03-30T07:38:57;4.80;;;4.40;;
8462;SDS011;4268;52.506;13.462;2023-03-30T07:41:23;4.90;;;4.47;;
8462;SDS011;4268;52.506;13.462;2023-03-30T07:43:49;4.80;;;4.05;;
8462;SDS011;4268;52.506;13.462;2023-03-30T07:46:14;4.60;;;4.20;;
8462;SDS011;4268;52.506;13.462;2023-03-30T07:48:40;4.30;;;3.90;;
8462;SDS011;4268;52.506;13.462;2023-03-30T07:51:06;5.13;;;4.63;;
8462;SDS011;4268;52.506;13.462;2023-03-30T07:53:34;5.40;;;4.90;;
8462;SDS011;4268;52.506;13.462;2023-03-30T07:56:00;4.63;;;4.23;;
8462;SDS011;4268;52.506;13.462;2023-03-30T07:58:26;5.17;;;4.70;;
8462;SDS011;4268;52.506;13.462;2023-03-30T08:00:53;6.30;;;4.20;;
8462;SDS011;4268;52.506;13.462;2023-03-30T08:03:18;4.50;;;4.10;;
8462;SDS011;4268;52.506;13.462;2023-03-30T08:05:55;5.40;;;4.13;;
8462;SDS011;4268;52.506;13.462;2023-03-30T08:08:24;4.67;;;4.23;;
8462;SDS011;4268;52.506;13.462;2023-03-30T08:10:51;4.50;;;3.90;;
8462;SDS011;4268;52.506;13.462;2023-03-30T08:13:17;4.97;;;4.20;;
8462;SDS011;4268;52.506;13.462;2023-03-30T08:15:43;5.03;;;4.20;;
8462;SDS011;4268;52.506;13.462;2023-03-30T08:18:09;5.77;;;4.40;;
8462;SDS011;4268;52.506;13.462;2023-03-30T08:20:36;4.93;;;4.43;;
8462;SDS011;4268;52.506;13.462;2023-03-30T08:23:03;5.87;;;4.67;;
8462;SDS011;4268;52.506;13.462;2023-03-30T08:25:29;4.80;;;4.40;;
8462;SDS011;4268;52.506;13.462;2023-03-30T08:27:54;6.17;;;4.93;;
8462;SDS011;4268;52.506;13.462;2023-03-30T08:30:20;5.47;;;4.23;;
8462;SDS011;4268;52.506;13.462;2023-03-30T08:32:46;5.53;;;4.43;;
8462;SDS011;4268;52.506;13.462;2023-03-30T08:35:12;4.80;;;4.30;;
8462;SDS011;4268;52.506;13.462;2023-03-30T08:37:37;4.67;;;4.20;;
8462;SDS011;4268;52.506;13.462;2023-03-30T08:40:03;4.30;;;3.90;;
8462;SDS011;4268;52.506;13.462;2023-03-30T08:42:56;5.77;;;3.83;;
8462;SDS011;4268;52.506;13.462;2023-03-30T08:45:23;6.00;;;4.23;;
8462;SDS011;4268;52.506;13.462;2023-03-30T08:47:51;5.10;;;3.93;;
8462;SDS011;4268;52.506;13.462;2023-03-30T08:50:25;4.53;;;4.03;;
8462;SDS011;4268;52.506;13.462;2023-03-30T08:52:56;6.73;;;3.60;;
8462;SDS011;4268;52.506;13.462;2023-03-30T08:55:22;4.97;;;3.90;;
8462;SDS011;4268;52.506;13.462;2023-03-30T08:57:54;4.10;;;3.50;;
8462;SDS011;4268;52.506;13.462;2023-03-30T09:00:35;3.60;;;3.30;;
8462;SDS011;4268;52.506;13.462;2023-03-30T09:03:29;5.60;;;3.30;;
8462;SDS011;4268;52.506;13.462;2023-03-30T09:06:21;3.70;;;3.40;;
8462;SDS011;4268;52.506;13.462;2023-03-30T09:08:56;3.53;;;3.23;;
8462;SDS011;4268;52.506;13.462;2023-03-30T09:11:24;3.50;;;3.20;;
8462;SDS011;4268;52.506;13.462;2023-03-30T09:13:58;5.53;;;3.50;;
8462;SDS011;4268;52.506;13.462;2023-03-30T09:19:22;4.63;;;3.40;;
8462;SDS011;4268;52.506;13.462;2023-03-30T09:21:52;4.63;;;3.30;;
8462;SDS011;4268;52.506;13.462;2023-03-30T09:24:23;4.37;;;3.27;;
8462;SDS011;4268;52.506;13.462;2023-03-30T09:26:53;7.17;;;3.77;;
8462;SDS011;4268;52.506;13.462;2023-03-30T09:29:29;4.13;;;3.73;;
8462;SDS011;4268;52.506;13.462;2023-03-30T09:32:03;6.67;;;3.90;;
8462;SDS011;4268;52.506;13.462;2023-03-30T09:34:54;3.80;;;3.30;;
8462;SDS011;4268;52.506;13.462;2023-03-30T09:37:34;5.53;;;3.70;;
8462;SDS011;4268;52.506;13.462;2023-03-30T09:40:16;6.13;;;3.00;;
8462;SDS011;4268;52.506;13.462;2023-03-30T09:43:07;5.33;;;3.47;;
8462;SDS011;4268;52.506;13.462;2023-03-30T09:45:38;3.93;;;3.30;;
8462;SDS011;4268;52.506;13.462;2023-03-30T09:48:07;3.23;;;2.93;;
8462;SDS011;4268;52.506;13.462;2023-03-30T09:50:37;5.00;;;3.47;;
8462;SDS011;4268;52.506;13.462;2023-03-30T09:53:05;3.77;;;3.47;;
8462;SDS011;4268;52.506;13.462;2023-03-30T09:55:42;4.77;;;3.37;;
8462;SDS011;4268;52.506;13.462;2023-03-30T09:58:28;4.50;;;3.00;;
8462;SDS011;4268;52.506;13.462;2023-03-30T10:03:38;4.07;;;3.47;;
8462;SDS011;4268;52.506;13.462;2023-03-30T10:06:17;5.70;;;3.23;;
8462;SDS011;4268;52.506;13.462;2023-03-30T10:08:53;4.43;;;3.27;;
8462;SDS011;4268;52.506;13.462;2023-03-30T10:14:29;5.77;;;3.30;;
8462;SDS011;4268;52.506;13.462;2023-03-30T10:16:59;3.33;;;3.03;;
8462;SDS011;4268;52.506;13.462;2023-03-30T10:19:26;4.07;;;3.30;;
8462;SDS011;4268;52.506;13.462;2023-03-30T10:21:53;5.53;;;3.63;;
8462;SDS011;4268;52.506;13.462;2023-03-30T10:24:22;3.90;;;3.10;;
8462;SDS011;4268;52.506;13.462;2023-03-30T10:26:51;5.63;;;3.40;;
8462;SDS011;4268;52.506;13.462;2023-03-30T10:29:20;6.83;;;3.33;;
8462;SDS011;4268;52.506;13.462;2023-03-30T10:31:48;6.30;;;3.40;;
8462;SDS011;4268;52.506;13.462;2023-03-30T10:34:27;3.70;;;3.13;;
8462;SDS011;4268;52.506;13.462;2023-03-30T10:37:17;5.40;;;3.20;;
8462;SDS011;4268;52.506;13.462;2023-03-30T10:39:50;7.10;;;3.57;;
8462;SDS011;4268;52.506;13.462;2023-03-30T10:42:18;3.73;;;3.20;;
8462;SDS011;4268;52.506;13.462;2023-03-30T10:44:48;6.63;;;3.20;;
8462;SDS011;4268;52.506;13.462;2023-03-30T10:47:24;4.40;;;3.23;;
8462;SDS011;4268;52.506;13.462;2023-03-30T10:50:03;3.93;;;3.30;;
8462;SDS011;4268;52.506;13.462;2023-03-30T10:52:54;4.07;;;3.67;;
8462;SDS011;4268;52.506;13.462;2023-03-30T10:58:21;4.17;;;3.17;;
8462;SDS011;4268;52.506;13.462;2023-03-30T11:01:23;4.70;;;3.57;;
8462;SDS011;4268;52.506;13.462;2023-03-30T11:04:15;5.10;;;3.40;;
8462;SDS011;4268;52.506;13.462;2023-03-30T11:06:46;5.17;;;3.90;;
8462;SDS011;4268;52.506;13.462;2023-03-30T11:09:18;6.33;;;3.50;;
8462;SDS011;4268;52.506;13.462;2023-03-30T11:11:50;4.37;;;3.30;;
8462;SDS011;4268;52.506;13.462;2023-03-30T11:14:26;4.60;;;3.10;;
8462;SDS011;4268;52.506;13.462;2023-03-30T11:17:04;5.40;;;3.43;;
8462;SDS011;4268;52.506;13.462;2023-03-30T11:22:29;5.10;;;3.30;;
8462;SDS011;4268;52.506;13.462;2023-03-30T11:25:03;6.00;;;3.33;;
8462;SDS011;4268;52.506;13.462;2023-03-30T11:27:45;4.67;;;3.70;;
8462;SDS011;4268;52.506;13.462;2023-03-30T11:30:27;4.87;;;3.27;;
8462;SDS011;4268;52.506;13.462;2023-03-30T11:35:53;5.83;;;3.40;;
8462;SDS011;4268;52.506;13.462;2023-03-30T11:38:43;3.97;;;3.33;;
8462;SDS011;4268;52.506;13.462;2023-03-30T11:41:25;4.13;;;2.97;;
8462;SDS011;4268;52.506;13.462;2023-03-30T11:43:55;4.13;;;3.10;;
8462;SDS011;4268;52.506;13.462;2023-03-30T11:52:01;7.63;;;3.60;;
8462;SDS011;4268;52.506;13.462;2023-03-30T12:05:36;4.13;;;3.50;;
8462;SDS011;4268;52.506;13.462;2023-03-30T12:11:19;4.13;;;3.60;;
8462;SDS011;4268;52.506;13.462;2023-03-30T12:14:05;6.30;;;3.60;;
8462;SDS011;4268;52.506;13.462;2023-03-30T12:16:47;4.10;;;3.70;;
8462;SDS011;4268;52.506;13.462;2023-03-30T12:19:23;3.90;;;3.13;;
8462;SDS011;4268;52.506;13.462;2023-03-30T12:22:03;5.30;;;3.50;;
8462;SDS011;4268;52.506;13.462;2023-03-30T12:24:46;4.83;;;3.70;;
8462;SDS011;4268;52.506;13.462;2023-03-30T12:27:18;4.97;;;3.60;;
8462;SDS011;4268;52.506;13.462;2023-03-30T12:29:44;5.60;;;3.27;;
8462;SDS011;4268;52.506;13.462;2023-03-30T12:32:28;4.67;;;3.30;;
8462;SDS011;4268;52.506;13.462;2023-03-30T12:34:55;4.97;;;3.40;;
8462;SDS011;4268;52.506;13.462;2023-03-30T12:37:22;4.47;;;3.20;;
8462;SDS011;4268;52.506;13.462;2023-03-30T12:40:00;4.17;;;3.10;;
8462;SDS011;4268;52.506;13.462;2023-03-30T12:42:33;5.27;;;3.77;;
8462;SDS011;4268;52.506;13.462;2023-03-30T12:50:18;5.30;;;3.80;;
8462;SDS011;4268;52.506;13.462;2023-03-30T12:53:22;5.00;;;3.90;;
8462;SDS011;4268;52.506;13.462;2023-03-30T12:56:30;5.07;;;3.20;;
8462;SDS011;4268;52.506;13.462;2023-03-30T13:01:57;5.80;;;3.80;;
8462;SDS011;4268;52.506;13.462;2023-03-30T13:04:35;5.87;;;4.00;;
8462;SDS011;4268;52.506;13.462;2023-03-30T13:07:13;4.33;;;3.93;;
8462;SDS011;4268;52.506;13.462;2023-03-30T13:09:55;4.30;;;3.43;;
8462;SDS011;4268;52.506;13.462;2023-03-30T13:14:58;5.30;;;3.57;;
8462;SDS011;4268;52.506;13.462;2023-03-30T13:17:56;5.00;;;3.47;;
8462;SDS011;4268;52.506;13.462;2023-03-30T13:31:29;4.83;;;3.67;;
8462;SDS011;4268;52.506;13.462;2023-03-30T13:34:41;6.43;;;4.00;;
8462;SDS011;4268;52.506;13.462;2023-03-30T13:37:26;4.57;;;3.80;;
8462;SDS011;4268;52.506;13.462;2023-03-30T13:40:17;6.73;;;4.33;;
8462;SDS011;4268;52.506;13.462;2023-03-30T13:42:58;5.50;;;3.77;;
8462;SDS011;4268;52.506;13.462;2023-03-30T13:48:49;5.83;;;4.10;;
8462;SDS011;4268;52.506;13.462;2023-03-30T13:51:29;4.60;;;3.73;;
8462;SDS011;4268;52.506;13.462;2023-03-30T13:56:23;6.37;;;3.80;;
8462;SDS011;4268;52.506;13.462;2023-03-30T13:59:13;6.17;;;3.70;;
8462;SDS011;4268;52.506;13.462;2023-03-30T14:01:49;4.97;;;2.90;;
8462;SDS011;4268;52.506;13.462;2023-03-30T14:04:18;4.13;;;2.60;;
8462;SDS011;4268;52.506;13.462;2023-03-30T14:06:44;4.73;;;3.23;;
8462;SDS011;4268;52.506;13.462;2023-03-30T14:09:16;3.47;;;2.60;;
8462;SDS011;4268;52.506;13.462;2023-03-30T14:11:50;3.73;;;2.60;;
8462;SDS011;4268;52.506;13.462;2023-03-30T14:16:58;2.90;;;2.70;;
8462;SDS011;4268;52.506;13.462;2023-03-30T14:19:33;2.97;;;2.73;;
8462;SDS011;4268;52.506;13.462;2023-03-30T14:22:02;6.00;;;2.93;;
8462;SDS011;4268;52.506;13.462;2023-03-30T14:24:59;3.50;;;3.20;;
8462;SDS011;4268;52.506;13.462;2023-03-30T14:27:31;3.57;;;3.27;;
8462;SDS011;4268;52.506;13.462;2023-03-30T14:30:00;4.03;;;3.40;;
8462;SDS011;4268;52.506;13.462;2023-03-30T14:32:26;5.20;;;4.90;;
8462;SDS011;4268;52.506;13.462;2023-03-30T14:34:53;4.13;;;3.40;;
8462;SDS011;4268;52.506;13.462;2023-03-30T14:37:19;4.30;;;3.97;;
8462;SDS011;4268;52.506;13.462;2023-03-30T14:39:48;4.50;;;4.03;;
8462;SDS011;4268;52.506;13.462;2023-03-30T14:42:17;3.47;;;3.27;;
8462;SDS011;4268;52.506;13.462;2023-03-30T14:44:45;3.53;;;3.23;;
8462;SDS011;4268;52.506;13.462;2023-03-30T14:47:13;3.20;;;2.97;;
8462;SDS011;4268;52.506;13.462;2023-03-30T14:49:42;4.40;;;4.10;;
8462;SDS011;4268;52.506;13.462;2023-03-30T14:52:21;4.50;;;4.10;;
8462;SDS011;4268;52.506;13.462;2023-03-30T14:54:50;4.40;;;4.00;;
8462;SDS011;4268;52.506;13.462;2023-03-30T14:57:19;3.60;;;3.30;;
8462;SDS011;4268;52.506;13.462;2023-03-30T14:59:47;3.50;;;3.20;;
8462;SDS011;4268;52.506;13.462;2023-03-30T15:02:28;3.27;;;3.07;;
8462;SDS011;4268;52.506;13.462;2023-03-30T15:04:56;4.43;;;3.67;;
8462;SDS011;4268;52.506;13.462;2023-03-30T15:07:22;5.00;;;4.50;;
8462;SDS011;4268;52.506;13.462;2023-03-30T15:09:53;4.57;;;4.17;;
8462;SDS011;4268;52.506;13.462;2023-03-30T15:12:21;5.37;;;4.90;;
8462;SDS011;4268;52.506;13.462;2023-03-30T15:14:53;5.53;;;5.10;;
8462;SDS011;4268;52.506;13.462;2023-03-30T15:17:22;5.13;;;4.70;;
8462;SDS011;4268;52.506;13.462;2023-03-30T15:19:51;5.10;;;4.73;;
8462;SDS011;4268;52.506;13.462;2023-03-30T15:22:27;4.00;;;3.60;;
8462;SDS011;4268;52.506;13.462;2023-03-30T15:24:55;3.80;;;3.50;;
8462;SDS011;4268;52.506;13.462;2023-03-30T15:27:24;4.80;;;4.40;;
8462;SDS011;4268;52.506;13.462;2023-03-30T15:29:51;5.67;;;4.00;;
8462;SDS011;4268;52.506;13.462;2023-03-30T15:32:20;3.97;;;3.67;;
8462;SDS011;4268;52.506;13.462;2023-03-30T15:38:18;7.00;;;6.50;;
8462;SDS011;4268;52.506;13.462;2023-03-30T15:40:37;4.60;;;3.90;;
8462;SDS011;4268;52.506;13.462;2023-03-30T15:45:47;4.43;;;4.10;;
8462;SDS011;4268;52.506;13.462;2023-03-30T15:48:15;4.60;;;3.73;;
8462;SDS011;4268;52.506;13.462;2023-03-30T15:50:50;5.87;;;5.23;;
8462;SDS011;4268;52.506;13.462;2023-03-30T15:53:29;5.20;;;3.40;;
8462;SDS011;4268;52.506;13.462;2023-03-30T15:55:59;4.27;;;3.87;;
8462;SDS011;4268;52.506;13.462;2023-03-30T15:58:26;4.30;;;3.90;;
8462;SDS011;4268;52.506;13.462;2023-03-30T16:00:52;4.43;;;4.00;;
8462;SDS011;4268;52.506;13.462;2023-03-30T16:03:32;5.10;;;4.17;;
8462;SDS011;4268;52.506;13.462;2023-03-30T16:06:00;4.17;;;3.77;;
8462;SDS011;4268;52.506;13.462;2023-03-30T16:08:25;4.20;;;3.80;;
8462;SDS011;4268;52.506;13.462;2023-03-30T16:10:51;3.97;;;3.57;;
8462;SDS011;4268;52.506;13.462;2023-03-30T16:13:17;4.10;;;3.70;;
8462;SDS011;4268;52.506;13.462;2023-03-30T16:15:42;4.10;;;3.60;;
8462;SDS011;4268;52.506;13.462;2023-03-30T16:18:09;4.57;;;3.80;;
8462;SDS011;4268;52.506;13.462;2023-03-30T16:20:36;4.87;;;4.10;;
8462;SDS011;4268;52.506;13.462;2023-03-30T16:23:01;5.70;;;3.70;;
8462;SDS011;4268;52.506;13.462;2023-03-30T16:25:28;5.93;;;3.60;;
8462;SDS011;4268;52.506;13.462;2023-03-30T16:27:54;4.90;;;3.83;;
8462;SDS011;4268;52.506;13.462;2023-03-30T16:30:21;4.50;;;4.10;;
8462;SDS011;4268;52.506;13.462;2023-03-30T16:32:58;4.37;;;3.97;;
8462;SDS011;4268;52.506;13.462;2023-03-30T16:35:24;4.63;;;3.90;;
8462;SDS011;4268;52.506;13.462;2023-03-30T16:37:50;4.60;;;3.80;;
8462;SDS011;4268;52.506;13.462;2023-03-30T16:40:20;4.70;;;4.13;;
8462;SDS011;4268;52.506;13.462;2023-03-30T16:42:52;5.33;;;4.33;;
8462;SDS011;4268;52.506;13.462;2023-03-30T16:45:18;4.10;;;3.70;;
8462;SDS011;4268;52.506;13.462;2023-03-30T16:47:43;4.83;;;3.80;;
8462;SDS011;4268;52.506;13.462;2023-03-30T16:50:19;5.43;;;4.00;;
8462;SDS011;4268;52.506;13.462;2023-03-30T16:53:01;5.37;;;4.17;;
8462;SDS011;4268;52.506;13.462;2023-03-30T16:55:26;4.20;;;3.80;;